Weather observations for the past three days for
Harrisonville Lawrence Smith Memorial Airport
Imperial (Metric)
Date Time (cdt) Wind (mph) Vis. (mi.) Weather Sky Cond. Temperature (ºF) Relative Humidity Wind Chill (°F) Heat Index (°F) Pressure Precipitation (in)
Air Dwpt 6 hour altimeter (in) sea level (mb) 1 hr 3 hr 6 hr
Max. Min.
09 12:15 W 8 10.00 Fair CLR 78.8 51.8 39% 79 29.87 0.0
09 11:55 W 10 10.00 Fair CLR 0 0 0% 29.87 0.0
09 11:35 W 10 10.00 Fair CLR 0 0 0% 29.87 0.0
09 11:15 W 13 G 16 10.00 Fair CLR 0 0 0% 29.87 0.0
09 10:55 W 12 10.00 Fair CLR 0 0 0% 29.87 0.0
09 10:35 W 10 10.00 Fair CLR 71.6 53.6 53% 29.86 0.0
09 10:15 W 10 10.00 Fair CLR 0 0 0% 29.87 0.0
09 09:55 W 5 10.00 Fair CLR 69.8 55.4 60% 29.86 0.0
09 09:35 W 7 10.00 Fair CLR 66.2 55.4 68% 29.86 0.0
09 09:15 W 3 10.00 Fair CLR 0 0 0% 29.86 0.0
09 08:55 W 6 10.00 Fair CLR 0 0 0% 29.86 0.0
09 08:35 W 5 10.00 Fair CLR 0 0 0% 29.86 0.0
09 08:15 W 3 10.00 Fair CLR 0 0 0% 29.85 0.0
09 07:55 SW 3 10.00 Fair CLR 0 0 0% 29.85 0.0
09 07:35 Calm 10.00 Fair CLR 0 0 0% 29.84 0.0
09 07:15 Calm 7.00 Partly Cloudy SCT002 0 0 0% 29.84 0.0
09 06:55 Calm 0.50 Fog OVC002 0 0 0% 29.83 0.0
09 06:35 Calm 0.50 Fog OVC002 0 0 0% 29.82 0.0
09 06:15 Calm 0.25 Fog OVC002 0 0 0% 29.83 0.0
09 05:55 Calm 0.50 Fog OVC002 0 0 0% 29.82 0.0
09 05:35 Calm 0.25 Fog OVC002 0 0 0% 29.82 0.0
09 05:15 Calm 0.15 Fog OVC002 0 0 0% 29.82 0.0
09 04:55 Calm 0.50 Fog OVC002 0 0 0% 29.83 0.0 0.01
09 04:35 Calm 0.25 Fog OVC002 0 0 0% 29.83 0.0 0.01
09 04:15 Calm 0.50 Fog OVC002 0 0 0% 29.83 0.0
09 03:55 Calm 0.50 Fog OVC002 0 0 0% 29.83 0.0
09 03:35 Calm 0.50 Fog OVC002 0 0 0% 29.83 0.0
09 03:15 Calm 0.50 Fog OVC002 0 0 0% 29.83 0.0
09 02:55 Calm 0.25 Fog OVC002 0 0 0% 29.83 0.0
09 02:35 Calm 0.25 Fog OVC002 0 0 0% 29.83 0.0
09 02:15 Calm 0.25 Fog OVC002 0 0 0% 29.83 0.0
09 01:55 Calm 0.25 Fog OVC002 0 0 0% 29.83 0.0
09 01:35 Calm 0.25 Fog OVC002 0 0 0% 29.84 0.0
09 01:15 Calm 0.25 Fog OVC002 0 0 0% 29.84 0.0
09 00:55 Calm 0.25 Fog OVC002 0 0 0% 29.85 0.0
09 00:35 Calm 0.25 Fog OVC002 0 0 0% 29.84 0.0
09 00:15 Calm 0.25 Fog OVC002 0 0 0% 29.84 0.0
08 23:55 Calm 0.25 Fog OVC002 0 0 0% 29.85 0.0
08 23:35 Calm 0.15 Fog OVC002 51.8 50 94% 29.85 0.0
08 23:15 Calm 0.25 Fog OVC002 53.6 51.8 94% 29.85 0.0
08 22:55 Calm 0.50 Fog OVC002 53.6 51.8 94% 29.86 0.0
08 22:35 Calm 0.50 Fog OVC002 53.6 51.8 94% 29.85 0.0
08 22:15 Calm 0.50 Fog OVC002 53.6 53.6 100% 29.85 0.0
08 21:55 Calm 0.75 Fog/Mist VV005 53.6 53.6 100% 29.84 0.0
08 21:35 Calm 0.50 Fog VV005 55.4 53.6 94% 29.84 0.0
08 21:15 Calm 7.00 Fair CLR 57.2 55.4 94% 29.83 0.0
08 20:55 Calm 1.00 Fog/Mist VV007 57.2 55.4 94% 29.82 0.0
08 20:35 Calm 2.00 Fog/Mist CLR 59 57.2 94% 29.81 0.0
08 20:15 Calm 10.00 Fair CLR 60.8 57.2 88% 29.8 0.0
08 19:55 Calm 10.00 Fair CLR 62.6 57.2 83% 29.79 0.0
08 19:35 Calm 10.00 Fair CLR 62.6 59 88% 29.79 0.0
08 19:15 NE 6 10.00 Partly Cloudy SCT090 62.6 60.8 94% 29.78 0.0
08 18:55 E 8 10.00 Mostly Cloudy BKN090 BKN120 62.6 60.8 94% 29.78 0.0
08 18:35 E 5 10.00 Overcast SCT046 SCT065 OVC100 60.8 59 94% 29.79 0.0
08 18:15 E 7 10.00 Overcast SCT046 BKN070 OVC110 62.6 60.8 94% 29.79 0.0
08 17:55 NE 5 10.00 Mostly Cloudy SCT041 SCT048 BKN055 62.6 60.8 94% 29.81 0.0 0.22
08 17:35 Calm 10.00 Light Rain SCT007 SCT019 BKN043 60.8 59 94% 29.8 0.0 0.22
08 17:15 NE 9 G 51 1.75 Heavy Rain SCT007 BKN029 OVC050 62.6 55.4 77% 29.79 0.0 0.21
08 16:55 NE 7 10.00 Overcast SCT048 BKN060 OVC090 69.8 57.2 64% 29.77 0.0
08 16:35 NE 3 10.00 Overcast SCT048 BKN050 OVC120 69.8 55.4 60% 29.79 0.0
08 16:15 NE 3 10.00 Mostly Cloudy SCT050 SCT070 BKN120 71.6 55.4 57% 29.8 0.0
08 15:55 E 5 10.00 Mostly Cloudy SCT090 BKN110 69.8 57.2 64% 29.8 0.0
08 15:35 E 3 10.00 Mostly Cloudy BKN100 68 55.4 64% 29.8 0.0
08 15:15 S 3 10.00 Partly Cloudy SCT100 69.8 55.4 60% 29.82 0.0
08 14:55 S 3 10.00 Mostly Cloudy SCT036 SCT070 BKN100 68 55.4 64% 29.82 0.0
08 14:35 NW 3 10.00 Mostly Cloudy BKN110 68 55.4 64% 29.83 0.0
08 14:15 NW 3 10.00 Partly Cloudy SCT110 69.8 55.4 60% 29.84 0.0
08 13:55 SW 5 10.00 Partly Cloudy SCT100 SCT120 69.8 55.4 60% 29.84 0.0
08 13:35 W 3 10.00 Partly Cloudy SCT090 68 55.4 64% 29.84 0.0
08 13:15 S 7 10.00 Overcast SCT037 SCT055 OVC090 64.4 55.4 73% 29.83 0.0
08 12:55 S 8 10.00 Overcast SCT044 SCT060 OVC090 64.4 55.4 73% 29.85 0.0
08 12:35 SW 7 10.00 Light Rain SCT038 SCT065 OVC090 62.6 53.6 73% 29.86 0.0
08 12:15 SW 5 10.00 Overcast SCT050 SCT070 OVC090 64.4 51.8 64% 29.88 0.0
08 11:55 SW 9 10.00 Mostly Cloudy SCT050 BKN100 BKN110 64.4 51.8 64% 29.88 0.0
08 11:35 SW 7 10.00 Overcast SCT033 SCT060 OVC100 64.4 51.8 64% 29.87 0.0
08 11:15 SW 10 10.00 Mostly Cloudy BKN100 64.4 51.8 64% 29.88 0.0
08 10:55 SW 10 10.00 Partly Cloudy SCT110 64.4 50 60% 29.88 0.0
08 10:35 SW 9 10.00 Partly Cloudy SCT110 62.6 50 64% 29.88 0.0
08 10:15 SW 8 G 12 10.00 Partly Cloudy SCT120 62.6 50 64% 29.88 0.0
08 09:55 SW 10 10.00 Mostly Cloudy BKN110 60.8 50 68% 29.88 0.0
08 09:35 SW 10 10.00 Overcast OVC110 60.8 48.2 63% 29.89 0.0
08 09:15 SW 6 10.00 Partly Cloudy SCT120 59 46.4 63% 29.89 0.0
08 08:55 SW 7 10.00 Partly Cloudy SCT120 59 46.4 63% 29.89 0.0
08 08:35 SW 7 10.00 Partly Cloudy SCT120 59 46.4 63% 29.89 0.0
08 08:15 SW 3 10.00 Mostly Cloudy BKN120 59 46.4 63% 29.89 0.0
08 07:55 S 6 10.00 Overcast OVC110 57.2 46.4 67% 29.88 0.0
08 07:35 S 6 10.00 Overcast SCT090 OVC120 55.4 46.4 72% 29.89 0.0
08 07:15 SW 6 10.00 Mostly Cloudy BKN120 55.4 46.4 72% 29.88 0.0
08 06:55 W 6 10.00 Light Rain SCT100 OVC120 55.4 46.4 72% 29.88 0.0
08 06:35 SW 7 10.00 Overcast OVC120 55.4 44.6 67% 29.88 0.0
08 06:15 SW 8 10.00 Mostly Cloudy BKN120 55.4 44.6 67% 29.87 0.0
08 05:55 SW 8 10.00 Mostly Cloudy BKN120 55.4 44.6 67% 29.87 0.0
08 05:35 SW 9 10.00 Overcast OVC120 55.4 44.6 67% 29.86 0.0
08 05:15 SW 6 10.00 Overcast OVC120 55.4 44.6 67% 29.86 0.0
08 04:55 S 6 10.00 Overcast OVC120 55.4 44.6 67% 29.86 0.0
08 04:35 S 6 10.00 Overcast OVC120 55.4 44.6 67% 29.86 0.0
08 04:15 S 5 10.00 Partly Cloudy SCT120 55.4 44.6 67% 29.86 0.0
08 03:55 S 5 10.00 Partly Cloudy SCT120 53.6 44.6 72% 29.87 0.0
08 03:35 S 3 10.00 Mostly Cloudy BKN120 55.4 44.6 67% 29.87 0.0
08 03:15 S 5 10.00 Partly Cloudy SCT120 55.4 44.6 67% 29.88 0.0
08 02:55 S 5 10.00 Fair CLR 55.4 44.6 67% 29.89 0.0
08 02:35 S 3 10.00 Fair CLR 53.6 44.6 72% 29.89 0.0
08 02:15 S 5 10.00 Fair CLR 55.4 44.6 67% 29.9 0.0
08 01:55 S 3 10.00 Fair CLR 55.4 44.6 67% 29.9 0.0
08 01:35 S 6 10.00 Fair CLR 55.4 44.6 67% 29.9 0.0
08 01:15 S 5 10.00 Fair CLR 57.2 44.6 63% 29.92 0.0
08 00:55 S 6 10.00 Fair CLR 57.2 44.6 63% 29.92 0.0
08 00:35 S 7 10.00 Fair CLR 59 44.6 59% 29.92 0.0
08 00:15 S 7 10.00 Fair CLR 59 44.6 59% 29.92 0.0
07 23:55 S 9 10.00 Fair CLR 59 44.6 59% 29.92 0.0
07 23:35 S 9 10.00 Fair CLR 60.8 44.6 55% 29.92 0.0
07 23:15 SW 10 10.00 Fair CLR 60.8 44.6 55% 29.92 0.0
07 22:55 S 7 10.00 Fair CLR 60.8 44.6 55% 29.93 0.0
07 22:35 S 7 10.00 Fair CLR 60.8 44.6 55% 29.92 0.0
07 22:15 S 7 10.00 Fair CLR 60.8 44.6 55% 29.92 0.0
07 21:55 S 6 10.00 Fair CLR 60.8 44.6 55% 29.92 0.0
07 21:35 S 6 10.00 Fair CLR 60.8 44.6 55% 29.9 0.0
07 21:15 S 7 10.00 Fair CLR 62.6 44.6 52% 29.9 0.0
07 20:55 S 6 10.00 Fair CLR 62.6 44.6 52% 29.9 0.0
07 20:35 S 5 10.00 Fair CLR 62.6 44.6 52% 29.9 0.0
07 20:15 S 5 10.00 Fair CLR 62.6 42.8 49% 29.9 0.0
07 19:55 S 5 10.00 Fair CLR 64.4 42.8 46% 29.9 0.0
07 19:35 SW 7 10.00 Fair CLR 68 42.8 40% 29.9 0.0
07 19:15 SW 8 10.00 Fair CLR 69.8 42.8 38% 29.9 0.0
07 18:35 SW 12 G 17 10.00 Fair CLR 69.8 42.8 38% 29.9 0.0
07 18:15 SW 13 G 17 10.00 Fair CLR 69.8 42.8 38% 29.9 0.0
07 17:55 SW 13 G 21 10.00 Fair CLR 69.8 41 35% 29.91 0.0
07 17:35 SW 13 G 16 10.00 Fair CLR 71.6 42.8 36% 29.92 0.0
07 17:15 SW 10 G 18 10.00 Fair CLR 69.8 42.8 38% 29.92 0.0
07 16:55 W 10 G 22 10.00 Fair CLR 69.8 42.8 38% 29.93 0.0
07 16:35 SW 12 G 23 10.00 Partly Cloudy SCT060 69.8 42.8 38% 29.93 0.0
07 15:35 SW 17 G 24 10.00 Partly Cloudy SCT050 69.8 42.8 38% 29.96 0.0
07 15:15 SW 18 G 23 10.00 Partly Cloudy SCT050 68 42.8 40% 29.97 0.0
07 14:55 SW 13 G 22 10.00 Partly Cloudy SCT050 68 44.6 43% 29.98 0.0
07 14:35 W 15 G 21 10.00 Mostly Cloudy BKN050 68 42.8 40% 29.99 0.0
07 14:15 SW 14 G 18 10.00 Mostly Cloudy SCT050 BKN060 66.2 42.8 43% 30 0.0
07 13:55 SW 13 G 22 10.00 Mostly Cloudy SCT050 BKN060 68 42.8 40% 30 0.0
07 13:35 W 14 G 22 10.00 Mostly Cloudy SCT050 BKN060 64.4 42.8 46% 30.02 0.0
07 13:15 W 14 G 23 10.00 Mostly Cloudy SCT050 BKN060 64.4 42.8 46% 30.02 0.0
07 12:55 W 15 G 20 10.00 Mostly Cloudy BKN050 64.4 42.8 46% 30.03 0.0
07 12:35 SW 16 G 21 10.00 Overcast OVC050 64.4 41 43% 30.03 0.0
07 12:15 SW 16 G 23 10.00 Overcast OVC050 64.4 41 43% 30.04 0.0
07 11:55 SW 17 10.00 Mostly Cloudy BKN050 62.6 41 45% 30.05 0.0
07 11:35 SW 16 G 21 10.00 Partly Cloudy SCT050 64.4 41 43% 30.05 0.0
07 11:15 SW 13 G 18 10.00 Fair CLR 62.6 39.2 42% 30.06 0.0
07 10:55 SW 12 10.00 Fair CLR 62.6 39.2 42% 30.06 0.0
07 10:35 SW 10 G 18 10.00 Fair CLR 60.8 39.2 45% 30.07 0.0
07 10:15 SW 15 10.00 Fair CLR 60.8 41 48% 30.07 0.0
07 09:55 SW 9 G 16 10.00 Fair CLR 59 41 51% 30.07 0.0
07 09:35 SW 8 10.00 Fair CLR 59 41 51% 30.07 0.0
07 09:15 SW 7 10.00 Fair CLR 55.4 39.2 55% 30.07 0.0
07 08:55 SW 9 10.00 Fair CLR 53.6 41 63% 30.08 0.0
07 08:35 SW 5 10.00 Fair CLR 51.8 41 67% 30.08 0.0
07 08:15 SW 5 10.00 Fair CLR 50 41 71% 49 30.09 0.0
07 07:55 Calm 10.00 Fair CLR 46.4 41 82% 30.09 0.0
07 07:35 Calm 10.00 Fair CLR 42.8 41 93% 30.09 0.0
07 07:15 Calm 10.00 Fair CLR 41 39.2 93% 30.08 0.0
07 06:55 Calm 10.00 Fair CLR 39.2 37.4 93% 30.08 0.0
07 06:35 Calm 10.00 Fair CLR 37.4 37.4 100% 30.07 0.0
07 06:15 Calm 10.00 Fair CLR 37.4 37.4 100% 30.07 0.0
07 05:55 Calm 10.00 Fair CLR 39.2 37.4 93% 30.07 0.0
07 05:35 Calm 10.00 Fair CLR 39.2 37.4 93% 30.07 0.0
07 05:15 Calm 10.00 Fair CLR 39.2 37.4 93% 30.08 0.0
07 04:55 Calm 10.00 Fair CLR 41 37.4 87% 30.08 0.0
07 04:35 Calm 10.00 Fair CLR 41 37.4 87% 30.08 0.0
07 04:15 Calm 10.00 Fair CLR 41 37.4 87% 30.08 0.0
07 03:55 Calm 10.00 Fair CLR 41 39.2 93% 30.08 0.0
07 03:35 Calm 10.00 Fair CLR 41 39.2 93% 30.08 0.0
07 03:15 Calm 10.00 Fair CLR 42.8 41 93% 30.08 0.0
07 02:55 Calm 10.00 Fair CLR 42.8 41 93% 30.08 0.0
07 02:35 Calm 10.00 Fair CLR 42.8 41 93% 30.08 0.0
07 02:15 Calm 10.00 Fair CLR 42.8 41 93% 30.09 0.0
07 01:55 Calm 10.00 Fair CLR 42.8 41 93% 30.1 0.0
07 01:35 Calm 10.00 Fair CLR 42.8 41 93% 30.1 0.0
07 01:15 Calm 10.00 Fair CLR 42.8 39.2 87% 30.11 0.0
07 00:55 Calm 10.00 Fair CLR 41 39.2 93% 30.11 0.0
07 00:35 Calm 10.00 Fair CLR 41 39.2 93% 30.1 0.0
07 00:15 Calm 10.00 Fair CLR 42.8 39.2 87% 30.11 0.0
06 23:55 Calm 10.00 Fair CLR 42.8 39.2 87% 30.1 0.0
06 23:35 Calm 10.00 Fair CLR 42.8 39.2 87% 30.11 0.0
06 23:15 Calm 10.00 Fair CLR 42.8 39.2 87% 30.12 0.0
06 22:55 Calm 10.00 Fair CLR 42.8 39.2 87% 30.11 0.0
06 22:35 Calm 10.00 Fair CLR 44.6 39.2 81% 30.11 0.0
06 22:15 Calm 10.00 Fair CLR 44.6 39.2 81% 30.11 0.0
06 21:55 Calm 10.00 Fair CLR 46.4 39.2 76% 30.11 0.0
06 21:35 Calm 10.00 Fair CLR 46.4 41 82% 30.1 0.0
06 21:15 Calm 10.00 Fair CLR 48.2 41 76% 30.09 0.0
06 20:55 Calm 10.00 Fair CLR 50 39.2 67% 30.08 0.0
06 20:35 Calm 10.00 Fair CLR 51.8 39.2 62% 30.08 0.0
06 20:15 Calm 10.00 Fair CLR 55.4 33.8 44% 30.07 0.0
06 19:55 NE 5 10.00 Fair CLR 57.2 32 39% 30.07 0.0
06 19:35 NE 6 10.00 Fair CLR 59 30.2 34% 30.07 0.0
06 19:15 N 8 10.00 Fair CLR 60.8 30.2 31% 30.07 0.0
06 18:55 N 13 G 16 10.00 Fair CLR 60.8 30.2 31% 30.07 0.0
06 18:35 N 8 10.00 Fair CLR 60.8 30.2 31% 30.07 0.0
06 18:15 N 9 10.00 Fair CLR 60.8 30.2 31% 30.07 0.0
06 17:55 N 7 10.00 Fair CLR 62.6 30.2 30% 30.07 0.0
06 17:35 N 10 10.00 Fair CLR 62.6 28.4 27% 30.07 0.0
06 17:15 N 10 G 16 10.00 Fair CLR 62.6 30.2 30% 30.07 0.0
06 16:55 N 8 10.00 Fair CLR 62.6 30.2 30% 30.07 0.0
06 16:35 N 9 10.00 Fair CLR 62.6 32 32% 30.08 0.0
06 16:15 N 14 G 17 10.00 Fair CLR 62.6 32 32% 30.08 0.0
06 15:55 NE 8 G 16 10.00 Fair CLR 60.8 32 34% 30.09 0.0
06 15:35 N 13 10.00 Fair CLR 62.6 32 32% 30.1 0.0
06 15:15 N 6 10.00 Fair CLR 62.6 32 32% 30.11 0.0
06 14:55 N 8 10.00 Fair CLR 60.8 32 34% 30.11 0.0
06 14:35 N 8 10.00 Partly Cloudy SCT120 60.8 30.2 31% 30.12 0.0
06 14:15 NW 9 10.00 Overcast SCT100 OVC120 59 30.2 34% 30.12 0.0
06 13:55 N 12 10.00 Mostly Cloudy BKN110 59 30.2 34% 30.12 0.0
06 13:35 N 13 10.00 Overcast OVC110 59 32 36% 30.12 0.0
06 13:15 N 12 10.00 Overcast OVC100 59 30.2 34% 30.13 0.0
06 12:55 N 10 G 18 10.00 Overcast OVC100 60.8 30.2 31% 30.14 0.0
06 12:35 N 9 G 17 10.00 Overcast OVC100 59 32 36% 30.14 0.0
Date Time (cdt) Wind (mph) Vis. (mi.) Weather Sky Cond. Air Dwpt Max. Min. Relative Humidity Wind Chill (°F) Heat Index (°F) altimeter (in) sea level (mb) 1 hr 3 hr 6 hr
6 hour
Temperature (ºF) Pressure Precipitation (in)